createdAt,value
2019-05-20T00:02:28.346Z,8.03
2019-05-20T00:04:57.363Z,8.70
2019-05-20T00:07:27.695Z,7.00
2019-05-20T00:09:58.118Z,8.00
2019-05-20T00:12:28.623Z,8.73
2019-05-20T00:15:00.713Z,7.57
2019-05-20T00:17:31.145Z,6.53
2019-05-20T00:20:01.668Z,8.40
2019-05-20T00:22:32.350Z,8.10
2019-05-20T00:25:02.745Z,9.17
2019-05-20T00:27:33.383Z,12.10
2019-05-20T00:30:03.805Z,11.33
2019-05-20T00:32:41.008Z,11.43
2019-05-20T00:35:06.919Z,11.90
2019-05-20T00:37:37.324Z,11.43
2019-05-20T00:40:09.237Z,10.17
2019-05-20T00:42:39.649Z,12.78
2019-05-20T00:45:10.295Z,11.13
2019-05-20T00:47:40.669Z,10.67
2019-05-20T00:50:11.411Z,8.87
2019-05-20T00:52:41.887Z,8.87
2019-05-20T00:55:26.080Z,10.35
2019-05-20T00:57:56.498Z,10.57
2019-05-20T01:00:27.276Z,8.25
2019-05-20T01:02:57.762Z,9.30
2019-05-20T01:05:28.287Z,10.17
2019-05-20T01:07:58.698Z,10.00
2019-05-20T01:10:29.070Z,8.00
2019-05-20T01:12:59.574Z,7.17
2019-05-20T01:15:29.922Z,9.07
2019-05-20T01:18:00.275Z,6.87
2019-05-20T01:20:30.876Z,9.00
2019-05-20T01:23:01.291Z,8.03
2019-05-20T01:25:31.656Z,7.70
2019-05-20T01:28:02.016Z,8.47
2019-05-20T01:30:32.454Z,7.50
2019-05-20T01:33:13.474Z,9.13
2019-05-20T01:35:34.869Z,10.17
2019-05-20T01:38:05.495Z,9.03
2019-05-20T01:40:35.865Z,7.37
2019-05-20T01:43:06.342Z,7.13
2019-05-20T01:45:36.785Z,7.87
2019-05-20T01:48:07.201Z,7.47
2019-05-20T01:50:37.576Z,8.37
2019-05-20T01:53:07.989Z,7.03
2019-05-20T01:55:38.854Z,7.70
2019-05-20T01:58:09.505Z,7.70
2019-05-20T02:00:39.962Z,7.87
2019-05-20T02:03:10.378Z,8.67
2019-05-20T02:05:40.743Z,8.43
2019-05-20T02:08:11.137Z,8.80
2019-05-20T02:10:41.595Z,9.77
2019-05-20T02:13:11.925Z,9.00
2019-05-20T02:15:51.772Z,8.47
2019-05-20T02:18:22.193Z,8.90
2019-05-20T02:20:52.635Z,9.00
2019-05-20T02:23:23.191Z,8.10
2019-05-20T02:25:53.570Z,8.60
2019-05-20T02:28:23.934Z,8.55
2019-05-20T02:30:56.938Z,8.10
2019-05-20T02:33:26.497Z,8.43
2019-05-20T02:35:56.955Z,8.03
2019-05-20T02:38:27.395Z,7.43
2019-05-20T02:40:57.757Z,8.13
2019-05-20T02:43:28.089Z,8.00
2019-05-20T02:45:58.444Z,8.70
2019-05-20T02:48:28.770Z,7.87
2019-05-20T02:50:59.169Z,7.70
2019-05-20T02:53:29.580Z,8.10
2019-05-20T02:55:59.994Z,7.90
2019-05-20T02:58:30.421Z,8.13
2019-05-20T03:01:00.872Z,7.83
2019-05-20T03:03:31.302Z,8.67
2019-05-20T03:06:01.730Z,8.30
2019-05-20T03:08:32.066Z,8.83
2019-05-20T03:11:02.442Z,8.47
2019-05-20T03:13:32.966Z,7.80
2019-05-20T03:16:03.357Z,8.60
2019-05-20T03:18:33.913Z,8.87
2019-05-20T03:21:04.323Z,9.00
2019-05-20T03:23:34.761Z,8.80
2019-05-20T03:26:05.207Z,8.73
2019-05-20T03:28:35.572Z,8.77
2019-05-20T03:31:07.002Z,8.00
2019-05-20T03:33:37.371Z,8.43
2019-05-20T03:36:08.042Z,8.63
2019-05-20T03:38:38.451Z,8.70
2019-05-20T03:41:08.875Z,8.70
2019-05-20T03:43:39.351Z,8.00
2019-05-20T03:46:09.794Z,8.73
2019-05-20T03:48:40.282Z,8.27
2019-05-20T03:51:10.691Z,8.40
2019-05-20T03:53:41.218Z,8.40
2019-05-20T03:56:11.781Z,8.47
2019-05-20T03:58:42.205Z,9.65
2019-05-20T04:01:12.591Z,9.37
2019-05-20T04:03:42.988Z,9.23
2019-05-20T04:06:13.354Z,8.50
2019-05-20T04:08:47.058Z,9.20
2019-05-20T04:11:17.475Z,8.97
2019-05-20T04:13:47.816Z,9.20
2019-05-20T04:16:18.255Z,8.77
2019-05-20T04:18:48.587Z,9.20
2019-05-20T04:21:19.034Z,8.67
2019-05-20T04:23:49.770Z,8.40
2019-05-20T04:26:21.374Z,10.07
2019-05-20T04:28:52.153Z,11.90
2019-05-20T04:31:22.883Z,8.30
2019-05-20T04:33:53.306Z,9.20
2019-05-20T04:36:23.778Z,8.80
2019-05-20T04:38:58.065Z,9.50
2019-05-20T04:41:28.605Z,8.97
2019-05-20T04:43:58.990Z,9.17
2019-05-20T04:46:29.678Z,8.50
2019-05-20T04:49:00.067Z,9.30
2019-05-20T04:51:30.554Z,10.43
2019-05-20T04:54:00.902Z,8.97
2019-05-20T04:56:31.407Z,8.53
2019-05-20T04:59:01.768Z,8.40
2019-05-20T05:01:32.273Z,8.13
2019-05-20T05:04:02.650Z,8.67
2019-05-20T05:06:33.093Z,8.43
2019-05-20T05:09:04.820Z,9.17
2019-05-20T05:11:35.244Z,7.67
2019-05-20T05:14:05.711Z,7.90
2019-05-20T05:16:36.072Z,8.17
2019-05-20T05:19:06.417Z,8.23
2019-05-20T05:21:36.796Z,7.30
2019-05-20T05:24:07.246Z,7.40
2019-05-20T05:26:37.711Z,7.63
2019-05-20T05:29:09.207Z,7.83
2019-05-20T05:31:39.585Z,7.57
2019-05-20T05:34:09.929Z,7.40
2019-05-20T05:36:40.435Z,7.77
2019-05-20T05:39:10.775Z,6.97
2019-05-20T05:41:41.150Z,7.20
2019-05-20T05:44:11.594Z,8.18
2019-05-20T05:46:42.020Z,7.40
2019-05-20T05:49:12.458Z,6.60
2019-05-20T05:51:42.832Z,6.67
2019-05-20T05:54:13.266Z,6.20
2019-05-20T05:56:43.760Z,5.07
2019-05-20T05:59:14.090Z,6.00
2019-05-20T06:01:44.475Z,6.42
2019-05-20T06:04:14.922Z,5.40
2019-05-20T06:06:45.297Z,5.33
2019-05-20T06:09:15.753Z,5.60
2019-05-20T06:11:46.102Z,5.33
2019-05-20T06:14:17.558Z,4.93
2019-05-20T06:16:47.927Z,5.00
2019-05-20T06:19:18.288Z,4.83
2019-05-20T06:21:48.708Z,4.70
2019-05-20T06:24:19.189Z,4.73
2019-05-20T06:26:49.697Z,5.60
2019-05-20T06:29:20.170Z,4.87
2019-05-20T06:31:50.774Z,5.40
2019-05-20T06:34:21.133Z,4.67
2019-05-20T06:36:53.153Z,5.77
2019-05-20T06:39:23.537Z,4.77
2019-05-20T06:41:53.957Z,6.00
2019-05-20T06:44:24.309Z,5.93
2019-05-20T06:46:54.854Z,5.97
2019-05-20T06:49:25.241Z,5.67
2019-05-20T06:51:55.609Z,5.03
2019-05-20T06:54:26.155Z,5.75
2019-05-20T06:56:56.785Z,4.90
2019-05-20T06:59:27.328Z,4.97
2019-05-20T07:01:57.864Z,4.93
2019-05-20T07:04:28.391Z,4.97
2019-05-20T07:06:58.742Z,5.20
2019-05-20T07:09:29.160Z,5.47
2019-05-20T07:11:59.694Z,4.83
2019-05-20T07:14:30.071Z,4.40
2019-05-20T07:17:00.515Z,5.00
2019-05-20T07:19:30.935Z,5.07
2019-05-20T07:22:01.403Z,4.93
2019-05-20T07:24:31.887Z,4.93
2019-05-20T07:27:02.490Z,4.43
2019-05-20T07:29:32.961Z,5.00
2019-05-20T07:32:03.362Z,5.92
2019-05-20T07:34:33.914Z,4.90
2019-05-20T07:37:04.411Z,4.90
2019-05-20T07:39:34.853Z,4.60
2019-05-20T07:42:05.376Z,5.13
2019-05-20T07:44:35.963Z,4.83
2019-05-20T07:47:06.947Z,4.80
2019-05-20T07:49:37.589Z,5.20
2019-05-20T07:52:07.978Z,4.27
2019-05-20T07:54:38.463Z,3.90
2019-05-20T07:57:12.147Z,4.67
2019-05-20T07:59:45.109Z,4.23
2019-05-20T08:02:15.846Z,4.37
2019-05-20T08:04:47.321Z,4.90
2019-05-20T08:07:27.379Z,4.60
2019-05-20T08:09:49.880Z,4.87
2019-05-20T08:12:20.374Z,4.90
2019-05-20T08:14:50.821Z,5.27
2019-05-20T08:17:21.244Z,5.17
2019-05-20T08:19:51.654Z,5.57
2019-05-20T08:22:22.080Z,5.23
2019-05-20T08:24:52.429Z,5.45
2019-05-20T08:27:22.844Z,4.83
2019-05-20T08:29:53.167Z,5.17
2019-05-20T08:32:24.828Z,5.17
2019-05-20T08:34:55.560Z,5.40
2019-05-20T08:37:26.013Z,5.60
2019-05-20T08:39:56.568Z,5.30
2019-05-20T08:42:27.026Z,6.40
2019-05-20T08:44:57.505Z,6.03
2019-05-20T08:47:27.932Z,5.30
2019-05-20T08:49:58.302Z,5.93
2019-05-20T08:52:28.717Z,5.50
2019-05-20T08:54:59.208Z,5.53
2019-05-20T08:57:29.664Z,5.30
2019-05-20T09:00:00.005Z,5.20
2019-05-20T09:02:30.522Z,5.30
2019-05-20T09:05:00.934Z,4.80
2019-05-20T09:07:31.378Z,5.47
2019-05-20T09:10:01.902Z,5.40
2019-05-20T09:12:32.386Z,4.70
2019-05-20T09:15:02.747Z,4.73
2019-05-20T09:17:33.460Z,4.83
2019-05-20T09:20:03.921Z,5.65
2019-05-20T09:22:34.337Z,5.07
2019-05-20T09:25:05.495Z,4.90
2019-05-20T09:27:37.653Z,5.57
2019-05-20T09:30:09.071Z,5.13
2019-05-20T09:32:42.956Z,4.53
2019-05-20T09:35:12.460Z,4.40
2019-05-20T09:37:42.954Z,4.30
2019-05-20T09:40:17.838Z,4.12
2019-05-20T09:42:48.343Z,4.00
2019-05-20T09:45:18.793Z,4.40
2019-05-20T09:47:49.410Z,4.03
2019-05-20T09:50:19.821Z,4.28
2019-05-20T09:52:50.379Z,4.20
2019-05-20T09:55:20.799Z,4.17
2019-05-20T09:57:51.342Z,4.15
2019-05-20T10:00:22.086Z,3.80
2019-05-20T10:02:52.596Z,3.75
2019-05-20T10:05:23.032Z,4.00
2019-05-20T10:07:53.487Z,3.90
2019-05-20T10:10:23.910Z,4.00
2019-05-20T10:12:54.413Z,3.60
2019-05-20T10:15:25.224Z,3.77
2019-05-20T10:17:55.590Z,3.92
2019-05-20T10:20:26.142Z,3.40
2019-05-20T10:22:56.909Z,3.83
2019-05-20T10:25:27.343Z,3.70
2019-05-20T10:27:57.967Z,3.55
2019-05-20T10:30:28.588Z,3.90
2019-05-20T10:32:59.013Z,4.03
2019-05-20T10:35:29.538Z,3.50
2019-05-20T10:38:00.067Z,3.25
2019-05-20T10:40:30.428Z,4.10
2019-05-20T10:43:00.989Z,3.60
2019-05-20T10:45:33.074Z,3.17
2019-05-20T10:48:08.375Z,3.08
2019-05-20T10:50:36.725Z,3.50
2019-05-20T10:53:08.265Z,3.22
2019-05-20T10:55:38.694Z,3.05
2019-05-20T10:58:09.258Z,3.00
2019-05-20T11:00:39.803Z,3.00
2019-05-20T11:03:10.263Z,3.10
2019-05-20T11:05:40.746Z,3.08
2019-05-20T11:08:11.183Z,3.02
2019-05-20T11:10:41.655Z,2.95
2019-05-20T11:13:12.102Z,2.85
2019-05-20T11:15:42.631Z,2.62
2019-05-20T11:18:13.076Z,2.75
2019-05-20T11:20:43.463Z,2.50
2019-05-20T11:23:13.883Z,2.25
2019-05-20T11:25:44.390Z,2.50
2019-05-20T11:28:14.844Z,2.42
2019-05-20T11:30:45.350Z,2.22
2019-05-20T11:33:15.790Z,2.65
2019-05-20T11:35:46.159Z,2.42
2019-05-20T11:38:16.630Z,2.98
2019-05-20T11:40:47.731Z,2.70
2019-05-20T11:43:18.157Z,2.72
2019-05-20T11:45:48.547Z,2.47
2019-05-20T11:48:19.172Z,2.10
2019-05-20T11:50:49.568Z,2.22
2019-05-20T11:53:20.032Z,2.05
2019-05-20T11:55:50.381Z,2.30
2019-05-20T11:58:20.983Z,2.10
2019-05-20T12:00:52.525Z,1.90
2019-05-20T12:03:23.100Z,2.10
2019-05-20T12:05:53.555Z,2.30
2019-05-20T12:08:24.065Z,2.52
2019-05-20T12:10:54.470Z,2.17
2019-05-20T12:13:24.851Z,2.25
2019-05-20T12:15:55.271Z,2.25
2019-05-20T12:18:25.720Z,2.20
2019-05-20T12:20:56.162Z,2.22
2019-05-20T12:23:26.534Z,2.52
2019-05-20T12:25:56.975Z,2.00
2019-05-20T12:28:27.405Z,2.00
2019-05-20T12:30:57.754Z,2.20
2019-05-20T12:33:28.265Z,1.90
2019-05-20T12:35:58.692Z,1.92
2019-05-20T12:38:29.082Z,1.98
2019-05-20T12:40:59.501Z,1.52
2019-05-20T12:43:29.868Z,1.60
2019-05-20T12:46:00.308Z,1.60
2019-05-20T12:48:30.818Z,1.92
2019-05-20T12:51:01.164Z,2.12
2019-05-20T12:53:31.625Z,1.82
2019-05-20T12:56:01.966Z,1.60
2019-05-20T12:58:32.531Z,1.75
2019-05-20T13:01:02.899Z,1.25
2019-05-20T13:03:33.441Z,1.50
2019-05-20T13:06:03.857Z,1.57
2019-05-20T13:08:35.422Z,1.80
2019-05-20T13:11:05.864Z,1.40
2019-05-20T13:13:36.379Z,1.50
2019-05-20T13:16:06.852Z,1.57
2019-05-20T13:18:37.436Z,1.60
2019-05-20T13:21:08.934Z,1.45
2019-05-20T13:23:39.409Z,1.35
2019-05-20T13:26:09.760Z,1.22
2019-05-20T13:28:40.176Z,1.17
2019-05-20T13:31:10.531Z,1.12
2019-05-20T13:33:40.896Z,1.30
2019-05-20T13:36:11.235Z,1.45
2019-05-20T13:38:41.751Z,1.35
2019-05-20T13:41:12.224Z,1.10
2019-05-20T13:43:42.756Z,1.05
2019-05-20T13:46:13.234Z,1.10
2019-05-20T13:48:43.713Z,1.10
2019-05-20T13:51:14.038Z,1.20
2019-05-20T13:53:44.555Z,1.10
2019-05-20T13:56:14.961Z,1.30
2019-05-20T13:58:45.442Z,1.40
2019-05-20T14:01:15.950Z,1.20
2019-05-20T14:03:46.436Z,1.05
2019-05-20T14:06:16.773Z,1.30
2019-05-20T14:08:47.263Z,1.40
2019-05-20T14:11:17.629Z,1.40
2019-05-20T14:13:48.014Z,1.12
2019-05-20T14:16:18.449Z,1.57
2019-05-20T14:18:48.835Z,1.40
2019-05-20T14:21:19.183Z,1.22
2019-05-20T14:23:49.758Z,1.30
2019-05-20T14:26:20.176Z,1.50
2019-05-20T14:28:50.819Z,1.22
2019-05-20T14:31:21.232Z,1.55
2019-05-20T14:33:51.657Z,1.50
2019-05-20T14:36:38.799Z,1.57
2019-05-20T14:38:54.211Z,1.20
2019-05-20T14:41:25.656Z,1.17
2019-05-20T14:43:56.126Z,1.15
2019-05-20T14:46:26.819Z,0.95
2019-05-20T14:49:01.673Z,0.65
2019-05-20T14:51:29.308Z,0.60
2019-05-20T14:53:59.797Z,0.80
2019-05-20T14:56:30.201Z,0.65
2019-05-20T14:59:00.566Z,3.70
2019-05-20T15:01:31.010Z,2.12
2019-05-20T15:04:01.361Z,0.80
2019-05-20T15:06:31.892Z,0.90
2019-05-20T15:09:02.365Z,0.80
2019-05-20T15:11:38.097Z,0.87
2019-05-20T15:14:06.306Z,0.85
2019-05-20T15:16:37.013Z,0.70
2019-05-20T15:19:07.572Z,0.70
2019-05-20T15:21:38.042Z,1.10
2019-05-20T15:24:08.598Z,12.85
2019-05-20T15:26:39.189Z,3.42
2019-05-20T15:29:26.617Z,1.02
2019-05-20T15:31:41.750Z,1.05
2019-05-20T15:34:12.270Z,1.10
2019-05-20T15:36:42.811Z,1.25
2019-05-20T15:39:13.363Z,1.10
2019-05-20T15:41:43.795Z,1.10
2019-05-20T15:44:14.274Z,1.10
2019-05-20T15:46:44.818Z,12.47
2019-05-20T15:49:15.241Z,1.15
2019-05-20T15:51:45.629Z,0.98
2019-05-20T15:54:16.148Z,1.10
2019-05-20T15:56:46.500Z,0.90
2019-05-20T15:59:16.905Z,1.12
2019-05-20T16:01:47.773Z,0.90
2019-05-20T16:04:18.269Z,1.07
2019-05-20T16:06:48.767Z,1.00
2019-05-20T16:09:19.308Z,1.10
2019-05-20T16:11:49.794Z,1.10
2019-05-20T16:14:21.024Z,0.90
2019-05-20T16:16:51.526Z,0.93
2019-05-20T16:19:22.110Z,1.10
2019-05-20T16:21:52.497Z,1.07
2019-05-20T16:24:22.906Z,0.75
2019-05-20T16:26:53.448Z,1.07
2019-05-20T16:29:24.981Z,0.65
2019-05-20T16:31:56.465Z,1.00
2019-05-20T16:34:26.849Z,0.90
2019-05-20T16:36:57.372Z,0.90
2019-05-20T16:39:30.811Z,1.10
2019-05-20T16:42:00.104Z,0.80
2019-05-20T16:44:30.780Z,0.70
2019-05-20T16:47:01.248Z,1.10
2019-05-20T16:49:31.805Z,0.70
2019-05-20T16:52:02.150Z,0.80
2019-05-20T16:54:32.605Z,0.80
2019-05-20T16:57:03.089Z,0.82
2019-05-20T16:59:33.520Z,0.95
2019-05-20T17:02:03.923Z,1.00
2019-05-20T17:04:34.286Z,0.90
2019-05-20T17:07:04.833Z,0.90
2019-05-20T17:09:35.272Z,0.93
2019-05-20T17:12:05.799Z,1.00
2019-05-20T17:14:36.333Z,1.10
2019-05-20T17:17:06.709Z,1.00
2019-05-20T17:19:37.195Z,1.20
2019-05-20T17:22:07.807Z,1.00
2019-05-20T17:24:38.215Z,1.10
2019-05-20T17:27:08.786Z,1.07
2019-05-20T17:29:39.343Z,1.05
2019-05-20T17:32:09.754Z,1.07
2019-05-20T17:34:40.320Z,1.10
2019-05-20T17:37:10.839Z,0.80
2019-05-20T17:39:41.390Z,0.90
2019-05-20T17:42:11.862Z,1.20
2019-05-20T17:44:43.462Z,0.90
2019-05-20T17:47:14.074Z,1.17
2019-05-20T17:49:44.546Z,0.80
2019-05-20T17:52:14.929Z,1.10
2019-05-20T17:54:45.450Z,1.00
2019-05-20T17:57:15.948Z,1.30
2019-05-20T17:59:46.402Z,1.30
2019-05-20T18:02:16.805Z,1.22
2019-05-20T18:04:47.330Z,1.32
2019-05-20T18:07:17.768Z,1.67
2019-05-20T18:09:50.294Z,1.57
2019-05-20T18:12:20.723Z,1.60
2019-05-20T18:14:54.726Z,1.70
2019-05-20T18:17:25.123Z,1.30
2019-05-20T18:19:55.600Z,1.25
2019-05-20T18:22:26.023Z,1.57
2019-05-20T18:24:56.373Z,1.60
2019-05-20T18:27:26.822Z,1.40
2019-05-20T18:29:57.200Z,1.42
2019-05-20T18:32:27.595Z,1.20
2019-05-20T18:34:57.980Z,1.37
2019-05-20T18:37:28.454Z,1.50
2019-05-20T18:40:12.746Z,1.35
2019-05-20T18:42:31.037Z,1.27
2019-05-20T18:45:01.422Z,1.10
2019-05-20T18:47:31.878Z,1.27
2019-05-20T18:50:02.255Z,1.30
2019-05-20T18:52:32.686Z,1.30
2019-05-20T18:55:03.127Z,1.20
2019-05-20T18:57:33.640Z,1.30
2019-05-20T19:00:06.162Z,1.23
2019-05-20T19:02:38.145Z,1.07
2019-05-20T19:05:08.749Z,1.10
2019-05-20T19:07:40.380Z,1.45
2019-05-20T19:10:12.364Z,1.37
2019-05-20T19:12:42.878Z,1.40
2019-05-20T19:15:14.518Z,1.30
2019-05-20T19:17:45.067Z,1.52
2019-05-20T19:20:16.499Z,1.30
2019-05-20T19:22:46.938Z,1.87
2019-05-20T19:25:17.407Z,1.17
2019-05-20T19:27:47.914Z,1.40
2019-05-20T19:30:18.297Z,1.10
2019-05-20T19:32:48.736Z,1.40
2019-05-20T19:35:19.291Z,1.60
2019-05-20T19:37:49.844Z,1.40
2019-05-20T19:40:20.243Z,1.15
2019-05-20T19:42:50.760Z,1.20
2019-05-20T19:45:21.166Z,1.30
2019-05-20T19:47:51.579Z,1.20
2019-05-20T19:50:22.291Z,1.52
2019-05-20T19:52:52.780Z,1.43
2019-05-20T19:55:23.351Z,1.20
2019-05-20T19:57:53.776Z,1.22
2019-05-20T20:00:24.414Z,1.10
2019-05-20T20:02:54.857Z,1.13
2019-05-20T20:05:25.297Z,1.52
2019-05-20T20:07:55.739Z,1.25
2019-05-20T20:10:26.181Z,1.37
2019-05-20T20:12:56.608Z,1.80
2019-05-20T20:15:28.017Z,1.50
2019-05-20T20:17:58.531Z,1.30
2019-05-20T20:20:28.994Z,1.60
2019-05-20T20:22:59.435Z,1.30
2019-05-20T20:25:29.826Z,1.20
2019-05-20T20:28:00.261Z,1.37
2019-05-20T20:30:30.786Z,1.50
2019-05-20T20:33:01.241Z,1.60
2019-05-20T20:35:37.949Z,1.50
2019-05-20T20:38:03.819Z,1.77
2019-05-20T20:40:34.341Z,1.83
2019-05-20T20:43:04.719Z,2.03
2019-05-20T20:45:35.253Z,2.50
2019-05-20T20:48:05.704Z,2.37
2019-05-20T20:50:36.200Z,2.90
2019-05-20T20:53:07.263Z,2.30
2019-05-20T20:55:37.758Z,2.30
2019-05-20T20:58:08.252Z,2.10
2019-05-20T21:00:38.656Z,2.67
2019-05-20T21:03:09.287Z,3.10
2019-05-20T21:05:39.746Z,2.70
2019-05-20T21:08:10.125Z,2.37
2019-05-20T21:10:40.653Z,2.43
2019-05-20T21:13:11.190Z,2.43
2019-05-20T21:15:41.719Z,2.05
2019-05-20T21:18:12.088Z,1.87
2019-05-20T21:20:42.457Z,5.47
2019-05-20T21:23:12.914Z,16.48
2019-05-20T21:25:43.453Z,6.87
2019-05-20T21:28:14.025Z,3.40
2019-05-20T21:30:44.411Z,2.53
2019-05-20T21:33:14.763Z,3.07
2019-05-20T21:35:45.735Z,2.60
2019-05-20T21:38:16.342Z,3.00
2019-05-20T21:40:46.712Z,2.70
2019-05-20T21:43:17.054Z,2.77
2019-05-20T21:45:47.508Z,2.50
2019-05-20T21:48:17.965Z,2.00
2019-05-20T21:50:48.426Z,2.13
2019-05-20T21:53:19.952Z,2.83
2019-05-20T21:55:50.383Z,2.77
2019-05-20T21:58:20.859Z,3.30
2019-05-20T22:00:54.657Z,3.17
2019-05-20T22:03:26.254Z,2.70
2019-05-20T22:05:56.776Z,2.90
2019-05-20T22:08:27.540Z,3.77
2019-05-20T22:10:58.185Z,3.23
2019-05-20T22:13:28.697Z,3.30
2019-05-20T22:15:59.334Z,2.70
2019-05-20T22:18:29.717Z,2.80
2019-05-20T22:21:00.169Z,2.50
2019-05-20T22:23:41.289Z,2.63
2019-05-20T22:26:11.738Z,2.50
2019-05-20T22:28:42.182Z,2.40
2019-05-20T22:31:12.648Z,3.07
2019-05-20T22:33:43.133Z,2.20
2019-05-20T22:36:13.588Z,2.47
2019-05-20T22:38:44.191Z,2.80
2019-05-20T22:41:14.558Z,2.40
2019-05-20T22:43:44.899Z,2.00
2019-05-20T22:46:15.265Z,2.37
2019-05-20T22:48:46.678Z,2.13
2019-05-20T22:51:17.103Z,2.47
2019-05-20T22:53:47.570Z,2.13
2019-05-20T22:56:18.000Z,2.27
2019-05-20T22:58:48.421Z,2.50
2019-05-20T23:01:18.813Z,2.03
2019-05-20T23:03:56.499Z,2.33
2019-05-20T23:06:21.366Z,2.00
2019-05-20T23:08:51.931Z,2.50
2019-05-20T23:11:22.429Z,3.30
2019-05-20T23:13:52.908Z,3.80
2019-05-20T23:16:23.270Z,3.33
2019-05-20T23:18:53.628Z,3.00
2019-05-20T23:21:24.074Z,3.50
2019-05-20T23:23:54.657Z,2.90
2019-05-20T23:26:25.121Z,3.30
2019-05-20T23:28:55.547Z,3.30
2019-05-20T23:31:25.990Z,3.20
2019-05-20T23:34:10.344Z,2.53
2019-05-20T23:36:28.670Z,2.97
2019-05-20T23:38:59.153Z,2.50
2019-05-20T23:41:29.693Z,2.90
2019-05-20T23:44:00.103Z,2.93
2019-05-20T23:46:30.476Z,2.90
2019-05-20T23:49:00.924Z,2.77
2019-05-20T23:51:31.380Z,2.60
2019-05-20T23:54:01.969Z,2.90
2019-05-20T23:56:32.483Z,2.80
2019-05-20T23:59:03.048Z,2.30
